createdAt,value
2023-02-26T00:00:39.437Z,6.50
2023-02-26T00:03:25.016Z,6.70
2023-02-26T00:06:12.136Z,6.70
2023-02-26T00:08:58.335Z,6.60
2023-02-26T00:11:44.474Z,6.30
2023-02-26T00:14:30.722Z,6.00
2023-02-26T00:17:25.284Z,5.70
2023-02-26T00:20:12.169Z,5.50
2023-02-26T00:22:59.790Z,5.50
2023-02-26T00:25:46.365Z,5.30
2023-02-26T00:28:32.972Z,5.30
2023-02-26T00:31:21.091Z,5.10
2023-02-26T00:34:07.007Z,5.20
2023-02-26T00:36:59.977Z,5.10
2023-02-26T00:39:57.868Z,5.10
2023-02-26T00:42:43.558Z,5.00
2023-02-26T00:45:29.467Z,4.80
2023-02-26T00:48:21.151Z,4.80
2023-02-26T00:51:10.442Z,4.80
2023-02-26T00:54:03.010Z,4.70
2023-02-26T00:56:50.417Z,4.80
2023-02-26T00:59:35.587Z,4.80
2023-02-26T01:02:21.345Z,4.60
2023-02-26T01:05:07.792Z,4.40
2023-02-26T01:07:59.546Z,4.20
2023-02-26T01:10:45.518Z,4.20
2023-02-26T01:13:32.972Z,4.10
2023-02-26T01:16:20.765Z,4.20
2023-02-26T01:19:13.564Z,3.80
2023-02-26T01:22:01.795Z,3.70
2023-02-26T01:24:48.650Z,3.80
2023-02-26T01:27:34.477Z,4.00
2023-02-26T01:30:21.963Z,4.00
2023-02-26T01:33:10.227Z,4.00
2023-02-26T01:35:58.932Z,4.10
2023-02-26T01:38:47.975Z,4.00
2023-02-26T01:41:36.321Z,3.90
2023-02-26T01:44:23.960Z,3.90
2023-02-26T01:47:20.696Z,3.90
2023-02-26T01:50:14.978Z,4.00
2023-02-26T01:53:15.318Z,4.00
2023-02-26T01:56:03.123Z,3.90
2023-02-26T01:58:49.564Z,4.00
2023-02-26T02:01:36.493Z,3.90
2023-02-26T02:04:24.007Z,3.40
2023-02-26T02:07:10.106Z,3.40
2023-02-26T02:09:55.754Z,3.30
2023-02-26T02:12:45.176Z,3.80
2023-02-26T02:15:35.632Z,3.70
2023-02-26T02:18:22.859Z,3.80
2023-02-26T02:21:30.078Z,3.80
2023-02-26T02:24:19.259Z,4.00
2023-02-26T02:27:09.842Z,3.70
2023-02-26T02:30:05.232Z,3.60
2023-02-26T02:32:56.964Z,3.40
2023-02-26T02:35:43.895Z,3.50
2023-02-26T02:38:33.468Z,3.30
2023-02-26T02:41:21.214Z,3.30
2023-02-26T02:44:08.986Z,3.50
2023-02-26T02:46:56.948Z,3.60
2023-02-26T02:49:46.448Z,3.70
2023-02-26T02:52:35.403Z,3.70
2023-02-26T02:55:22.300Z,3.80
2023-02-26T02:58:11.575Z,3.60
2023-02-26T03:01:00.526Z,3.50
2023-02-26T03:03:50.560Z,3.30
2023-02-26T03:06:38.141Z,3.30
2023-02-26T03:09:24.089Z,3.20
2023-02-26T03:12:09.819Z,3.30
2023-02-26T03:14:56.380Z,3.40
2023-02-26T03:17:51.694Z,3.20
2023-02-26T03:20:41.290Z,3.20
2023-02-26T03:23:32.290Z,3.20
2023-02-26T03:26:20.715Z,3.00
2023-02-26T03:29:10.226Z,3.50
2023-02-26T03:31:59.245Z,3.20
2023-02-26T03:34:47.370Z,3.30
2023-02-26T03:37:33.803Z,3.40
2023-02-26T03:40:26.063Z,3.70
2023-02-26T03:43:18.803Z,3.60
2023-02-26T03:46:05.649Z,3.40
2023-02-26T03:48:53.195Z,3.50
2023-02-26T03:51:40.728Z,3.50
2023-02-26T03:54:48.373Z,3.10
2023-02-26T03:58:01.551Z,3.10
2023-02-26T04:01:03.887Z,3.20
2023-02-26T04:03:52.332Z,3.00
2023-02-26T04:06:38.772Z,2.60
2023-02-26T04:09:25.089Z,2.70
2023-02-26T04:12:11.563Z,2.70
2023-02-26T04:15:02.601Z,2.60
2023-02-26T04:17:48.497Z,2.50
2023-02-26T04:20:35.251Z,2.80
2023-02-26T04:23:21.013Z,2.80
2023-02-26T04:26:06.830Z,2.90
2023-02-26T04:28:54.644Z,3.20
2023-02-26T04:31:41.978Z,3.30
2023-02-26T04:34:27.359Z,3.40
2023-02-26T04:37:12.978Z,3.40
2023-02-26T04:39:58.398Z,3.10
2023-02-26T04:42:44.886Z,3.10
2023-02-26T04:45:31.528Z,3.10
2023-02-26T04:48:19.076Z,3.00
2023-02-26T04:51:04.970Z,2.70
2023-02-26T04:53:51.804Z,2.60
2023-02-26T04:56:37.724Z,2.70
2023-02-26T04:59:25.168Z,2.60
2023-02-26T05:02:11.230Z,2.70
2023-02-26T05:05:00.528Z,2.80
2023-02-26T05:07:46.595Z,2.90
2023-02-26T05:10:34.267Z,3.00
2023-02-26T05:13:20.419Z,3.00
2023-02-26T05:16:06.982Z,2.70
2023-02-26T05:18:52.479Z,2.30
2023-02-26T05:21:39.708Z,2.50
2023-02-26T05:24:25.163Z,2.20
2023-02-26T05:27:10.758Z,1.90
2023-02-26T05:30:04.526Z,1.90
2023-02-26T05:32:50.422Z,1.80
2023-02-26T05:35:35.979Z,1.80
2023-02-26T05:38:23.568Z,1.90
2023-02-26T05:41:08.830Z,1.90
2023-02-26T05:43:54.475Z,2.20
2023-02-26T05:46:40.696Z,2.20
2023-02-26T05:49:27.077Z,2.10
2023-02-26T05:52:12.773Z,1.90
2023-02-26T05:55:01.012Z,2.00
2023-02-26T05:57:46.518Z,2.00
2023-02-26T06:00:31.987Z,2.20
2023-02-26T06:03:17.685Z,2.30
2023-02-26T06:06:04.097Z,2.30
2023-02-26T06:08:49.719Z,2.00
2023-02-26T06:11:38.452Z,1.70
2023-02-26T06:14:24.022Z,2.00
2023-02-26T06:17:09.578Z,2.00
2023-02-26T06:19:55.582Z,2.10
2023-02-26T06:22:40.955Z,2.20
2023-02-26T06:25:26.812Z,2.30
2023-02-26T06:28:14.195Z,2.20
2023-02-26T06:31:00.184Z,2.30
2023-02-26T06:33:45.607Z,2.30
2023-02-26T06:36:31.140Z,2.50
2023-02-26T06:39:16.838Z,2.40
2023-02-26T06:42:02.305Z,2.40
2023-02-26T06:44:49.208Z,2.60
2023-02-26T06:47:35.236Z,2.70
2023-02-26T06:50:20.915Z,2.70
2023-02-26T06:53:06.837Z,2.80
2023-02-26T06:55:52.870Z,2.80
2023-02-26T06:58:38.699Z,2.70
2023-02-26T07:01:25.975Z,3.10
2023-02-26T07:04:11.693Z,3.60
2023-02-26T07:06:57.388Z,4.00
2023-02-26T07:09:44.935Z,4.30
2023-02-26T07:12:31.251Z,4.40
2023-02-26T07:15:17.068Z,4.40
2023-02-26T07:18:04.228Z,4.60
2023-02-26T07:20:50.329Z,4.30
2023-02-26T07:23:36.556Z,4.40
2023-02-26T07:26:22.278Z,3.80
2023-02-26T07:29:08.039Z,3.60
2023-02-26T07:31:53.636Z,3.70
2023-02-26T07:34:40.853Z,3.80
2023-02-26T07:37:27.132Z,3.90
2023-02-26T07:40:12.945Z,3.90
2023-02-26T07:42:58.608Z,4.10
2023-02-26T07:45:44.910Z,4.00
2023-02-26T07:48:30.510Z,4.20
2023-02-26T07:51:16.994Z,4.70
2023-02-26T07:54:03.154Z,4.90
2023-02-26T07:56:48.406Z,4.90
2023-02-26T07:59:33.710Z,5.30
2023-02-26T08:02:19.344Z,5.20
2023-02-26T08:05:05.320Z,5.70
2023-02-26T08:07:52.240Z,6.10
2023-02-26T08:10:41.110Z,6.50
2023-02-26T08:13:27.648Z,6.80
2023-02-26T08:16:13.585Z,6.30
2023-02-26T08:18:59.344Z,5.80
2023-02-26T08:21:45.360Z,5.80
2023-02-26T08:24:32.684Z,5.40
2023-02-26T08:27:18.429Z,5.30
2023-02-26T08:30:04.192Z,5.30
2023-02-26T08:32:50.999Z,5.30
2023-02-26T08:35:37.364Z,5.20
2023-02-26T08:38:22.872Z,5.40
2023-02-26T08:41:10.079Z,6.20
2023-02-26T08:43:56.179Z,6.80
2023-02-26T08:46:42.294Z,7.70
2023-02-26T08:49:28.348Z,8.10
2023-02-26T08:52:14.270Z,8.30
2023-02-26T08:55:00.363Z,8.80
2023-02-26T08:57:47.853Z,8.40
2023-02-26T09:00:34.711Z,8.70
2023-02-26T09:03:20.392Z,8.80
2023-02-26T09:06:05.904Z,9.10
2023-02-26T09:08:51.560Z,9.20
2023-02-26T09:11:37.692Z,9.90
2023-02-26T09:14:25.586Z,9.90
2023-02-26T09:17:11.295Z,10.30
2023-02-26T09:19:57.639Z,10.10
2023-02-26T09:22:43.522Z,9.80
2023-02-26T09:25:29.423Z,9.20
2023-02-26T09:28:15.436Z,9.10
2023-02-26T09:31:02.552Z,8.60
2023-02-26T09:33:48.571Z,8.10
2023-02-26T09:36:34.596Z,7.90
2023-02-26T09:39:20.517Z,8.20
2023-02-26T09:42:16.046Z,7.00
2023-02-26T09:45:02.920Z,7.60
2023-02-26T09:47:53.034Z,7.60
2023-02-26T09:50:43.539Z,7.40
2023-02-26T09:53:32.096Z,8.20
2023-02-26T09:56:23.655Z,8.20
2023-02-26T09:59:10.256Z,8.50
2023-02-26T10:02:00.348Z,8.90
2023-02-26T10:04:57.056Z,8.70
2023-02-26T10:07:49.621Z,7.90
2023-02-26T10:10:45.409Z,7.50
2023-02-26T10:13:40.469Z,7.50
2023-02-26T10:16:37.653Z,7.70
2023-02-26T10:19:29.011Z,7.90
2023-02-26T10:22:24.073Z,8.40
2023-02-26T10:25:15.148Z,8.90
2023-02-26T10:28:06.797Z,9.10
2023-02-26T10:30:58.055Z,8.70
2023-02-26T10:33:51.886Z,8.70
2023-02-26T10:36:44.845Z,9.10
2023-02-26T10:39:35.362Z,9.40
2023-02-26T10:42:26.167Z,10.40
2023-02-26T10:45:26.666Z,9.90
2023-02-26T10:48:36.934Z,8.90
2023-02-26T10:51:28.389Z,8.40
2023-02-26T10:54:20.330Z,7.90
2023-02-26T10:57:14.771Z,8.50
2023-02-26T11:00:01.060Z,8.00
2023-02-26T11:02:48.927Z,7.80
2023-02-26T11:05:35.376Z,7.70
2023-02-26T11:08:26.068Z,8.10
2023-02-26T11:11:32.012Z,8.50
2023-02-26T11:14:21.772Z,9.50
2023-02-26T11:17:12.459Z,10.60
2023-02-26T11:20:00.111Z,11.10
2023-02-26T11:22:48.377Z,10.60
2023-02-26T11:25:36.176Z,10.80
2023-02-26T11:28:26.437Z,9.70
2023-02-26T11:31:19.772Z,10.20
2023-02-26T11:34:08.928Z,11.30
2023-02-26T11:36:58.962Z,11.60
2023-02-26T11:39:45.189Z,11.10
2023-02-26T11:42:35.179Z,10.70
2023-02-26T11:45:21.195Z,10.10
2023-02-26T11:48:11.689Z,10.80
2023-02-26T11:50:58.064Z,11.00
2023-02-26T11:53:48.041Z,10.60
2023-02-26T11:56:36.568Z,11.00
2023-02-26T11:59:23.147Z,10.80
2023-02-26T12:02:12.915Z,10.50
2023-02-26T12:05:01.251Z,10.00
2023-02-26T12:07:48.744Z,9.90
2023-02-26T12:10:40.060Z,10.10
2023-02-26T12:13:33.512Z,10.10
2023-02-26T12:16:25.458Z,10.50
2023-02-26T12:19:17.658Z,10.60
2023-02-26T12:22:16.311Z,10.90
2023-02-26T12:25:32.994Z,11.10
2023-02-26T12:28:51.217Z,11.60
2023-02-26T12:32:16.147Z,11.50
2023-02-26T12:35:45.861Z,11.10
2023-02-26T12:38:43.191Z,9.70
2023-02-26T12:41:51.679Z,9.70
2023-02-26T12:45:06.727Z,10.30
2023-02-26T12:48:05.032Z,10.40
2023-02-26T12:51:01.446Z,9.90
2023-02-26T12:53:59.957Z,10.10
2023-02-26T12:57:09.518Z,10.30
2023-02-26T13:00:14.603Z,10.20
2023-02-26T13:03:45.512Z,10.70
2023-02-26T13:06:52.750Z,10.80
2023-02-26T13:09:50.754Z,8.30
2023-02-26T13:12:49.497Z,8.30
2023-02-26T13:15:57.671Z,8.70
2023-02-26T13:18:52.157Z,8.90
2023-02-26T13:21:43.631Z,9.20
2023-02-26T13:24:37.029Z,10.40
2023-02-26T13:27:27.969Z,10.50
2023-02-26T13:30:25.758Z,10.00
2023-02-26T13:33:18.042Z,8.50
2023-02-26T13:36:06.974Z,8.00
2023-02-26T13:39:12.757Z,7.80
2023-02-26T13:42:08.144Z,7.80
2023-02-26T13:45:07.813Z,7.70
2023-02-26T13:48:03.843Z,7.80
2023-02-26T13:50:59.017Z,8.10
2023-02-26T13:53:57.967Z,8.00
2023-02-26T13:56:49.741Z,7.90
2023-02-26T13:59:48.530Z,8.00
2023-02-26T14:02:54.829Z,8.00
2023-02-26T14:06:23.970Z,7.90
2023-02-26T14:09:35.719Z,8.10
2023-02-26T14:12:33.785Z,7.70
2023-02-26T14:15:29.034Z,7.80
2023-02-26T14:18:29.813Z,8.10
2023-02-26T14:21:37.351Z,7.80
2023-02-26T14:24:36.357Z,7.80
2023-02-26T14:27:32.529Z,7.90
2023-02-26T14:30:27.840Z,7.70
2023-02-26T14:33:17.326Z,7.60
2023-02-26T14:36:05.958Z,7.70
2023-02-26T14:38:52.574Z,7.60
2023-02-26T14:41:41.268Z,7.90
2023-02-26T14:44:28.493Z,7.80
2023-02-26T14:47:14.328Z,7.70
2023-02-26T14:50:00.534Z,7.60
2023-02-26T14:52:52.142Z,7.60
2023-02-26T14:55:45.488Z,7.50
2023-02-26T14:58:38.287Z,7.50
2023-02-26T15:01:36.903Z,7.60
2023-02-26T15:04:41.465Z,7.90
2023-02-26T15:07:39.443Z,8.10
2023-02-26T15:10:33.878Z,7.90
2023-02-26T15:13:26.498Z,8.10
2023-02-26T15:16:21.277Z,7.70
2023-02-26T15:19:21.957Z,7.60
2023-02-26T15:22:20.181Z,7.70
2023-02-26T15:25:08.578Z,7.70
2023-02-26T15:27:55.572Z,7.60
2023-02-26T15:30:43.255Z,7.70
2023-02-26T15:33:30.016Z,7.50
2023-02-26T15:36:21.766Z,7.20
2023-02-26T15:39:09.339Z,7.20
2023-02-26T15:41:56.132Z,7.10
2023-02-26T15:44:56.440Z,7.10
2023-02-26T15:47:42.723Z,7.30
2023-02-26T15:50:31.935Z,7.40
2023-02-26T15:53:21.828Z,7.50
2023-02-26T15:56:12.552Z,7.50
2023-02-26T15:59:01.821Z,7.70
2023-02-26T16:01:50.306Z,7.60
2023-02-26T16:04:36.122Z,8.00
2023-02-26T16:07:22.519Z,7.90
2023-02-26T16:10:16.879Z,7.90
2023-02-26T16:13:02.979Z,7.80
2023-02-26T16:15:48.976Z,7.50
2023-02-26T16:18:37.651Z,7.30
2023-02-26T16:21:31.041Z,7.30
2023-02-26T16:24:20.755Z,6.90
2023-02-26T16:27:09.642Z,7.00
2023-02-26T16:29:57.979Z,7.30
2023-02-26T16:32:44.287Z,7.10
2023-02-26T16:35:34.824Z,6.90
2023-02-26T16:38:20.964Z,6.80
2023-02-26T16:41:08.751Z,6.70
2023-02-26T16:43:56.831Z,6.90
2023-02-26T16:46:43.790Z,7.40
2023-02-26T16:49:30.806Z,7.70
2023-02-26T16:52:19.215Z,7.60
2023-02-26T16:55:05.402Z,7.70
2023-02-26T16:57:50.713Z,7.90
2023-02-26T17:00:38.247Z,8.00
2023-02-26T17:03:24.626Z,8.10
2023-02-26T17:06:11.705Z,7.50
2023-02-26T17:08:59.286Z,7.70
2023-02-26T17:11:46.040Z,7.50
2023-02-26T17:14:33.009Z,7.40
2023-02-26T17:17:18.631Z,7.00
2023-02-26T17:20:06.137Z,7.00
2023-02-26T17:22:52.280Z,6.60
2023-02-26T17:25:41.012Z,6.70
2023-02-26T17:28:28.097Z,7.10
2023-02-26T17:31:15.345Z,7.10
2023-02-26T17:34:01.198Z,6.70
2023-02-26T17:36:47.479Z,6.20
2023-02-26T17:39:33.374Z,5.90
2023-02-26T17:42:21.787Z,5.80
2023-02-26T17:45:09.477Z,5.90
2023-02-26T17:47:55.093Z,5.90
2023-02-26T17:50:43.905Z,5.70
2023-02-26T17:53:34.088Z,5.70
2023-02-26T17:56:25.878Z,5.70
2023-02-26T17:59:14.439Z,6.10
2023-02-26T18:02:00.895Z,6.00
2023-02-26T18:04:47.050Z,6.10
2023-02-26T18:07:33.176Z,6.10
2023-02-26T18:10:23.184Z,6.40
2023-02-26T18:13:10.956Z,6.00
2023-02-26T18:16:01.036Z,5.70
2023-02-26T18:18:48.004Z,5.60
2023-02-26T18:21:33.727Z,5.60
2023-02-26T18:24:21.625Z,5.60
2023-02-26T18:27:13.539Z,5.40
2023-02-26T18:30:01.279Z,5.20
2023-02-26T18:32:48.391Z,5.60
2023-02-26T18:35:34.229Z,5.00
2023-02-26T18:38:20.964Z,4.80
2023-02-26T18:41:06.833Z,5.00
2023-02-26T18:43:52.358Z,5.00
2023-02-26T18:46:40.228Z,5.10
2023-02-26T18:49:27.655Z,5.00
2023-02-26T18:52:13.382Z,5.10
2023-02-26T18:55:00.509Z,5.30
2023-02-26T18:57:46.160Z,5.20
2023-02-26T19:00:32.163Z,5.30
2023-02-26T19:03:18.021Z,5.50
2023-02-26T19:06:05.786Z,5.40
2023-02-26T19:08:51.306Z,5.10
2023-02-26T19:11:38.176Z,5.20
2023-02-26T19:14:23.827Z,5.50
2023-02-26T19:17:09.301Z,5.60
2023-02-26T19:19:55.147Z,5.70
2023-02-26T19:22:42.456Z,5.50
2023-02-26T19:25:29.289Z,5.40
2023-02-26T19:28:15.218Z,5.40
2023-02-26T19:31:01.048Z,5.40
2023-02-26T19:33:46.556Z,5.40
2023-02-26T19:36:33.461Z,5.30
2023-02-26T19:39:20.666Z,5.40
2023-02-26T19:42:06.295Z,5.70
2023-02-26T19:44:51.664Z,5.70
2023-02-26T19:47:37.369Z,5.70
2023-02-26T19:50:25.539Z,5.60
2023-02-26T19:53:11.661Z,5.20
2023-02-26T19:55:58.679Z,4.80
2023-02-26T19:58:44.241Z,4.70
2023-02-26T20:01:30.286Z,5.00
2023-02-26T20:04:15.996Z,4.90
2023-02-26T20:07:01.859Z,4.80
2023-02-26T20:09:48.793Z,5.00
2023-02-26T20:12:36.430Z,5.10
2023-02-26T20:15:21.886Z,5.00
2023-02-26T20:18:07.737Z,5.30
2023-02-26T20:20:53.691Z,5.20
2023-02-26T20:23:40.139Z,5.10
2023-02-26T20:26:25.639Z,4.80
2023-02-26T20:29:12.935Z,4.90
2023-02-26T20:31:59.174Z,4.90
2023-02-26T20:34:44.865Z,4.90
2023-02-26T20:37:30.501Z,5.20
2023-02-26T20:40:16.314Z,5.40
2023-02-26T20:43:01.864Z,5.40
2023-02-26T20:45:49.193Z,5.20
2023-02-26T20:48:36.935Z,5.30
2023-02-26T20:51:22.564Z,5.30
2023-02-26T20:54:10.226Z,5.30
2023-02-26T20:56:55.922Z,5.10
2023-02-26T20:59:41.527Z,5.10
2023-02-26T21:02:28.419Z,5.10
2023-02-26T21:05:14.343Z,5.20
2023-02-26T21:07:59.769Z,5.00
2023-02-26T21:10:45.884Z,5.00
2023-02-26T21:13:33.352Z,5.00
2023-02-26T21:16:19.282Z,4.70
2023-02-26T21:19:06.038Z,4.80
2023-02-26T21:21:51.661Z,4.70
2023-02-26T21:24:37.457Z,4.80
2023-02-26T21:27:22.708Z,5.00
2023-02-26T21:30:09.284Z,5.10
2023-02-26T21:32:55.013Z,5.00
2023-02-26T21:35:42.077Z,5.20
2023-02-26T21:38:27.883Z,5.30
2023-02-26T21:41:13.590Z,5.30
2023-02-26T21:43:59.091Z,5.30
2023-02-26T21:46:44.834Z,5.20
2023-02-26T21:49:31.892Z,5.20
2023-02-26T21:52:18.880Z,5.10
2023-02-26T21:55:04.613Z,5.00
2023-02-26T21:57:50.055Z,4.90
2023-02-26T22:00:35.380Z,4.80
2023-02-26T22:03:21.006Z,4.90
2023-02-26T22:06:06.888Z,4.80
2023-02-26T22:08:53.909Z,4.90
2023-02-26T22:11:39.641Z,4.80
2023-02-26T22:14:25.207Z,4.70
2023-02-26T22:17:10.785Z,4.60
2023-02-26T22:19:56.471Z,4.50
2023-02-26T22:22:41.864Z,4.60
2023-02-26T22:25:28.789Z,4.70
2023-02-26T22:28:14.354Z,4.70
2023-02-26T22:31:00.006Z,4.60
2023-02-26T22:33:45.418Z,4.80
2023-02-26T22:36:31.467Z,4.80
2023-02-26T22:39:16.703Z,4.80
2023-02-26T22:42:03.714Z,4.80
2023-02-26T22:44:49.336Z,4.80
2023-02-26T22:47:35.199Z,4.80
2023-02-26T22:50:20.693Z,4.70
2023-02-26T22:53:06.948Z,4.60
2023-02-26T22:55:52.960Z,4.70
2023-02-26T22:58:39.957Z,4.60
2023-02-26T23:01:26.002Z,4.60
2023-02-26T23:04:11.844Z,4.50
2023-02-26T23:06:57.247Z,4.40
2023-02-26T23:09:42.804Z,4.30
2023-02-26T23:12:28.617Z,4.30
2023-02-26T23:15:15.693Z,4.30
2023-02-26T23:18:01.770Z,4.20
2023-02-26T23:20:48.003Z,4.10
2023-02-26T23:23:33.746Z,4.00
2023-02-26T23:26:19.315Z,4.00
2023-02-26T23:29:06.365Z,3.90
2023-02-26T23:31:53.404Z,3.80
2023-02-26T23:34:38.854Z,3.80
2023-02-26T23:37:24.304Z,3.80
2023-02-26T23:40:10.440Z,3.70
2023-02-26T23:42:56.232Z,3.70
2023-02-26T23:45:41.627Z,3.60
2023-02-26T23:48:28.972Z,3.60
2023-02-26T23:51:14.494Z,3.60
2023-02-26T23:53:59.950Z,3.80
2023-02-26T23:56:47.301Z,3.70
2023-02-26T23:59:33.248Z,3.70
